M I D A S
Marine Information and Data Acquisition System
Tripno 1898 of the Zeeleeuw from 2010-06-10 07:17:39 to 2010-06-10 16:38:57
Back to CruiseResearch ActivitiesStationsMapUnderway DataData graphs

EquipmentUnitsComment
TimeDGPSUTC
LatitudeDGPSDM.mWGS84
LongitudeDGPSDM.mWGS84
HeadingGyrodeg 
SOGDGPSknotsSpeed over ground
COGDGPSdegCourse over ground
DepthEcho soundermeters200 kHz
Missing or incorrect values are displayed as -999
Navigation data collected by the RV Zeeleeuw from 2010-06-10 07:52:38 to 2010-06-10 16:42:46
                                                                                    Next 1000 lines
Time Latitude Longitude Heading SOG COG Depth
2010-06-10 07:52:48 51°13.661 2°55.954 108.9 1.5 285 6.6
2010-06-10 07:52:53 51°13.662 2°55.95 108.8 1.9 289 6.6
2010-06-10 07:52:58 51°13.663 2°55.944 108.7 2.4 286 6.3
2010-06-10 07:53:03 51°13.664 2°55.939 108.2 2.8 286 -999
2010-06-10 07:53:09 51°13.665 2°55.931 107.5 3.1 286 -999
2010-06-10 07:53:14 51°13.667 2°55.923 106.8 3.4 285 -999
2010-06-10 07:53:20 51°13.668 2°55.914 106.3 3.6 284 -999
2010-06-10 07:53:25 51°13.669 2°55.907 105.9 3.7 284 -999
2010-06-10 07:53:31 51°13.671 2°55.897 105.8 3.9 283 -999
2010-06-10 07:53:36 51°13.672 2°55.888 106.2 4 282 -999
2010-06-10 07:53:41 51°13.673 2°55.88 107.3 4 284 -999
2010-06-10 07:53:46 51°13.675 2°55.871 108.5 4.1 285 -999
2010-06-10 07:53:51 51°13.677 2°55.862 110 4.2 288 -999
2010-06-10 07:53:56 51°13.679 2°55.853 111.8 4.3 290 -999
2010-06-10 07:54:01 51°13.681 2°55.844 113.6 4.4 291 -999
2010-06-10 07:54:06 51°13.683 2°55.835 115.1 4.5 293 -999
2010-06-10 07:54:11 51°13.686 2°55.826 116.9 4.5 296 -999
2010-06-10 07:54:16 51°13.689 2°55.817 119.1 4.6 297 -999
2010-06-10 07:54:21 51°13.692 2°55.808 120.9 4.6 298 -999
2010-06-10 07:54:26 51°13.695 2°55.799 122.7 4.7 299 -999
2010-06-10 07:54:31 51°13.699 2°55.79 124.2 4.7 302 -999
2010-06-10 07:54:36 51°13.702 2°55.782 125.9 4.7 304 -999
2010-06-10 07:54:41 51°13.706 2°55.773 127.6 4.7 305 -999
2010-06-10 07:54:46 51°13.71 2°55.764 129 4.8 306 -999
2010-06-10 07:54:51 51°13.714 2°55.756 131 4.8 308 -999
2010-06-10 07:54:56 51°13.718 2°55.747 133.5 5 311 -999
2010-06-10 07:55:01 51°13.723 2°55.739 135.7 5.2 312 -999
2010-06-10 07:55:06 51°13.728 2°55.73 137.8 5.3 315 -999
2010-06-10 07:55:11 51°13.734 2°55.722 139.8 5.5 317 -999
2010-06-10 07:55:16 51°13.74 2°55.714 142.1 5.6 321 -999
2010-06-10 07:55:21 51°13.746 2°55.707 143.8 5.8 323 -999
2010-06-10 07:55:26 51°13.753 2°55.699 146 5.8 325 -999
2010-06-10 07:55:31 51°13.76 2°55.692 147.9 5.9 326 -999
2010-06-10 07:55:36 51°13.766 2°55.685 149.5 5.9 328 -999
2010-06-10 07:55:41 51°13.773 2°55.678 150.3 5.9 328 -999
2010-06-10 07:55:46 51°13.78 2°55.671 150.8 5.8 329 -999
2010-06-10 07:55:51 51°13.787 2°55.665 151.5 5.7 328 -999
2010-06-10 07:55:56 51°13.794 2°55.658 151.9 5.6 330 -999
2010-06-10 07:56:01 51°13.8 2°55.652 152.5 5.5 330 -999
2010-06-10 07:56:06 51°13.807 2°55.646 152.9 5.3 330 -999
2010-06-10 07:56:12 51°13.814 2°55.64 153.8 5.1 330 -999
2010-06-10 07:56:16 51°13.819 2°55.635 154.7 4.9 331 -999
2010-06-10 07:56:21 51°13.825 2°55.63 155.8 4.8 332 12.1
2010-06-10 07:56:26 51°13.83 2°55.626 157.1 4.6 333 -999
2010-06-10 07:56:31 51°13.836 2°55.622 158.6 4.5 335 12.4
2010-06-10 07:56:36 51°13.842 2°55.618 160.6 4.3 337 11.7
2010-06-10 07:56:41 51°13.847 2°55.614 162.7 4.3 338 11.6
2010-06-10 07:56:46 51°13.852 2°55.611 164.8 4.1 339 11.5
2010-06-10 07:56:51 51°13.858 2°55.608 167 4 341 -999
2010-06-10 07:56:56 51°13.863 2°55.606 169.2 3.9 344 11.5
2010-06-10 07:57:01 51°13.868 2°55.604 171.4 3.8 346 11.3
2010-06-10 07:57:06 51°13.873 2°55.602 174 3.7 348 -999
2010-06-10 07:57:11 51°13.878 2°55.601 176.6 3.6 351 11.2
2010-06-10 07:57:16 51°13.883 2°55.6 179.4 3.6 355 -999
2010-06-10 07:57:21 51°13.888 2°55.599 182.2 3.5 357 11.9
2010-06-10 07:57:25 51°13.892 2°55.599 185 3.4 359 11.7
2010-06-10 07:57:31 51°13.898 2°55.6 187.2 3.3 2 11.7
2010-06-10 07:57:36 51°13.902 2°55.6 190 3.2 5 11.7
2010-06-10 07:57:41 51°13.906 2°55.601 193.2 3.1 8 11.7
2010-06-10 07:57:46 51°13.911 2°55.602 195.6 3.1 10 11.7
2010-06-10 07:57:51 51°13.914 2°55.604 198.6 2.9 13 -999
2010-06-10 07:57:56 51°13.918 2°55.605 201.1 2.9 15 11.8
2010-06-10 07:58:01 51°13.922 2°55.607 203.4 2.8 18 11.8
2010-06-10 07:58:05 51°13.925 2°55.609 204.9 2.7 18 11.8
2010-06-10 07:58:11 51°13.929 2°55.611 207.3 2.6 21 11.8
2010-06-10 07:58:15 51°13.931 2°55.613 209.6 2.4 23 11.8
2010-06-10 07:58:20 51°13.934 2°55.615 211.6 2.3 25 11.8
2010-06-10 07:58:25 51°13.937 2°55.617 213.5 2.3 28 11.8
2010-06-10 07:58:29 51°13.939 2°55.619 215.3 2.1 28 11.8
2010-06-10 07:58:34 51°13.941 2°55.621 217.1 2 31 11.8
2010-06-10 07:58:39 51°13.944 2°55.624 219 1.9 31 11.9
2010-06-10 07:58:44 51°13.946 2°55.626 220.8 1.7 35 12.1
2010-06-10 07:58:49 51°13.948 2°55.628 222.7 1.6 34 12.3
2010-06-10 07:58:53 51°13.949 2°55.629 224.4 1.4 35 12.4
2010-06-10 07:58:58 51°13.95 2°55.631 226 1.2 34 12.4
2010-06-10 07:59:03 51°13.951 2°55.632 227.5 0.9 34 12.4
2010-06-10 07:59:08 51°13.952 2°55.633 229.3 0.7 30 12.4
2010-06-10 07:59:12 51°13.953 2°55.633 231.5 0.6 28 12.4
2010-06-10 07:59:18 51°13.953 2°55.633 234 0.3 11 12.4
2010-06-10 07:59:22 51°13.954 2°55.633 236.7 0.3 312 12.4
2010-06-10 07:59:28 51°13.954 2°55.632 239.9 0.5 268 12.4
2010-06-10 07:59:33 51°13.954 2°55.63 243.9 0.8 263 12.3
2010-06-10 07:59:37 51°13.953 2°55.628 248.6 1.1 263 12.3
2010-06-10 07:59:43 51°13.953 2°55.625 253.8 1.4 264 12.2
2010-06-10 07:59:48 51°13.953 2°55.621 259.2 1.7 267 12
2010-06-10 07:59:53 51°13.953 2°55.617 264.8 1.9 271 11.8
2010-06-10 07:59:58 51°13.953 2°55.613 270.3 2.1 276 11.8
2010-06-10 08:00:03 51°13.954 2°55.607 275.9 2.3 280 12
2010-06-10 08:00:08 51°13.955 2°55.602 281.3 2.5 284 12
2010-06-10 08:00:13 51°13.956 2°55.596 287.1 2.7 292 12
2010-06-10 08:00:17 51°13.958 2°55.592 293.3 2.9 296 11.6
2010-06-10 08:00:22 51°13.96 2°55.586 299.3 3.3 302 11.5
2010-06-10 08:00:28 51°13.964 2°55.578 305.8 3.8 310 11.5
2010-06-10 08:00:33 51°13.968 2°55.571 312.9 4.2 315 11.8
2010-06-10 08:00:37 51°13.972 2°55.566 318.7 4.6 319 11.6
2010-06-10 08:00:43 51°13.978 2°55.558 322.9 5 322 11.7
2010-06-10 08:00:48 51°13.984 2°55.551 325.2 5.4 323 11.6
2010-06-10 08:00:53 51°13.991 2°55.543 327 5.9 326 11.7
2010-06-10 08:00:58 51°13.998 2°55.536 328.9 6.3 326 11.6
2010-06-10 08:01:02 51°14.005 2°55.53 330.6 6.7 329 11.6
2010-06-10 08:01:08 51°14.015 2°55.52 332.1 7.1 329 11.5
2010-06-10 08:01:12 51°14.022 2°55.514 333.5 7.6 332 11.6
2010-06-10 08:01:18 51°14.034 2°55.504 334.7 7.9 332 11.5
2010-06-10 08:01:22 51°14.042 2°55.497 334.7 8.3 331 11.6
2010-06-10 08:01:28 51°14.055 2°55.487 334.8 8.6 334 11.6
2010-06-10 08:01:32 51°14.064 2°55.48 336.2 8.8 334 11.7
2010-06-10 08:01:38 51°14.078 2°55.47 337.4 9 336 11.6
2010-06-10 08:01:43 51°14.089 2°55.462 337.6 9.2 334 11.7
2010-06-10 08:01:48 51°14.101 2°55.453 337.4 9.3 335 11.6
2010-06-10 08:01:53 51°14.113 2°55.444 336.9 9.4 334 11.6
2010-06-10 08:01:57 51°14.122 2°55.437 336.9 9.5 335 11.6
2010-06-10 08:02:03 51°14.137 2°55.426 337.5 9.6 335 11.6
2010-06-10 08:02:08 51°14.149 2°55.417 337.1 9.7 334 11.5
2010-06-10 08:02:13 51°14.161 2°55.408 337 9.8 336 11.5
2010-06-10 08:02:18 51°14.173 2°55.398 337.2 9.9 334 11.4
2010-06-10 08:02:23 51°14.186 2°55.388 336.3 10 333 11.3
2010-06-10 08:02:28 51°14.199 2°55.378 335.4 10.1 333 11.2
2010-06-10 08:02:33 51°14.211 2°55.368 335.3 10.2 333 11.2
2010-06-10 08:02:38 51°14.223 2°55.358 335.4 10.2 332 11
2010-06-10 08:02:42 51°14.234 2°55.349 335.3 10.3 333 10.6
2010-06-10 08:02:48 51°14.249 2°55.336 334.6 10.4 332 10.8
2010-06-10 08:02:53 51°14.262 2°55.326 334.3 10.4 332 10.8
2010-06-10 08:02:58 51°14.274 2°55.315 334.5 10.4 332 11.3
2010-06-10 08:03:02 51°14.285 2°55.306 334.6 10.6 332 11.3
2010-06-10 08:03:08 51°14.3 2°55.293 334.5 10.7 332 11.1
2010-06-10 08:03:13 51°14.313 2°55.281 334 10.9 331 11.5
2010-06-10 08:03:17 51°14.324 2°55.272 333.5 10.9 331 11.3
2010-06-10 08:03:23 51°14.34 2°55.258 333.6 11.1 332 11.2
2010-06-10 08:03:28 51°14.354 2°55.246 334 11.2 332 11.1
2010-06-10 08:03:33 51°14.368 2°55.234 334 11.5 330 11.1
2010-06-10 08:03:38 51°14.381 2°55.22 331.9 11.6 327 11.3
2010-06-10 08:03:43 51°14.394 2°55.205 330.1 11.6 326 11.2
2010-06-10 08:03:48 51°14.408 2°55.19 328.6 11.7 325 11.4
2010-06-10 08:03:52 51°14.419 2°55.179 328.4 11.9 326 11.4
2010-06-10 08:03:58 51°14.435 2°55.16 327.4 12 324 11.4
2010-06-10 08:04:02 51°14.446 2°55.147 326.3 12.2 324 10.9
2010-06-10 08:04:08 51°14.463 2°55.128 326 12.4 324 10.9
2010-06-10 08:04:13 51°14.477 2°55.111 326.3 12.5 324 10.8
2010-06-10 08:04:17 51°14.488 2°55.098 326.4 12.7 325 10.7
2010-06-10 08:04:23 51°14.505 2°55.078 326.7 12.9 324 10.7
2010-06-10 08:04:28 51°14.52 2°55.062 326.6 12.9 325 11.4
2010-06-10 08:04:33 51°14.535 2°55.046 327 12.9 325 11.8
2010-06-10 08:04:38 51°14.549 2°55.029 327.1 13.1 324 12.1
2010-06-10 08:04:43 51°14.564 2°55.012 327.1 13.1 325 12.2
2010-06-10 08:04:48 51°14.579 2°54.995 327.4 13.1 324 12
2010-06-10 08:04:53 51°14.594 2°54.979 327.4 13.1 326 12.4
2010-06-10 08:04:58 51°14.609 2°54.963 328.7 13.1 326 12.1
2010-06-10 08:05:02 51°14.621 2°54.949 328.9 13 325 12
2010-06-10 08:05:08 51°14.639 2°54.93 328.4 13 325 12.1
2010-06-10 08:05:13 51°14.654 2°54.914 329.2 13 326 12.2
2010-06-10 08:05:17 51°14.666 2°54.9 329.6 13 326 12.2
2010-06-10 08:05:22 51°14.681 2°54.885 329.6 13 326 12.4
2010-06-10 08:05:28 51°14.698 2°54.866 329.9 12.9 327 12.3
2010-06-10 08:05:33 51°14.713 2°54.851 330.3 12.9 327 12.4
2010-06-10 08:05:38 51°14.728 2°54.834 330.4 12.9 326 12.5
2010-06-10 08:05:43 51°14.743 2°54.818 329.6 12.9 324 12.5
2010-06-10 08:05:48 51°14.758 2°54.801 328.4 12.9 325 12.4
2010-06-10 08:05:52 51°14.769 2°54.788 328.2 13 325 12.6
2010-06-10 08:05:58 51°14.787 2°54.769 328.7 13 326 12.3
2010-06-10 08:06:02 51°14.799 2°54.757 329.6 13 327 12.4
2010-06-10 08:06:08 51°14.818 2°54.738 330.6 12.9 328 12.2
2010-06-10 08:06:12 51°14.83 2°54.725 330.9 13 325 12
2010-06-10 08:06:18 51°14.847 2°54.705 328.7 13 323 12.3
2010-06-10 08:06:23 51°14.861 2°54.687 327.3 12.9 322 12.2
2010-06-10 08:06:28 51°14.875 2°54.669 325.3 12.9 321 12.2
2010-06-10 08:06:33 51°14.889 2°54.652 324.7 12.9 322 12.4
2010-06-10 08:06:37 51°14.9 2°54.638 324.7 13 321 12.3
2010-06-10 08:06:43 51°14.917 2°54.616 324.5 13 322 12.4
2010-06-10 08:06:48 51°14.932 2°54.599 325 12.9 322 12.2
2010-06-10 08:06:53 51°14.946 2°54.581 325.2 12.9 321 10.5
2010-06-10 08:06:58 51°14.959 2°54.563 324.6 12.8 321 10.6
2010-06-10 08:07:02 51°14.97 2°54.549 324.5 12.8 321 10.6
2010-06-10 08:07:08 51°14.987 2°54.527 324.5 12.8 321 10.4
2010-06-10 08:07:13 51°15.001 2°54.509 324.8 12.8 320 10.5
2010-06-10 08:07:18 51°15.015 2°54.492 324.7 12.8 321 10.6
2010-06-10 08:07:22 51°15.026 2°54.477 325 12.9 321 10.8
2010-06-10 08:07:28 51°15.042 2°54.456 325.2 12.9 321 10.8
2010-06-10 08:07:33 51°15.056 2°54.438 325.1 12.9 321 10.6
2010-06-10 08:07:37 51°15.067 2°54.424 324.6 12.9 321 10.7
2010-06-10 08:07:42 51°15.081 2°54.406 324.3 12.9 321 10.7
2010-06-10 08:07:48 51°15.098 2°54.385 324.5 12.9 322 10.7
2010-06-10 08:07:53 51°15.112 2°54.367 324.6 12.9 321 10.8
2010-06-10 08:07:58 51°15.126 2°54.348 324.4 12.9 321 10.8
2010-06-10 08:08:03 51°15.139 2°54.33 324.2 12.9 320 10.8
2010-06-10 08:08:08 51°15.153 2°54.312 324.2 12.9 320 11
2010-06-10 08:08:12 51°15.164 2°54.297 323.8 12.9 320 11
2010-06-10 08:08:18 51°15.181 2°54.275 324 12.9 320 11.1
2010-06-10 08:08:22 51°15.192 2°54.26 323.8 13 320 10.9
2010-06-10 08:08:28 51°15.208 2°54.238 323.8 13 320 11.2
2010-06-10 08:08:32 51°15.219 2°54.223 323.9 12.9 321 11.1
2010-06-10 08:08:37 51°15.233 2°54.205 324.2 12.9 321 11.1
2010-06-10 08:08:43 51°15.25 2°54.184 324.7 12.9 321 11.2
2010-06-10 08:08:48 51°15.264 2°54.166 324.5 13 321 11.4
2010-06-10 08:08:53 51°15.278 2°54.148 324.7 13 321 11.1
2010-06-10 08:08:58 51°15.292 2°54.13 324.5 12.9 321 10.9
2010-06-10 08:09:03 51°15.305 2°54.112 324.4 12.8 321 11.1
2010-06-10 08:09:08 51°15.319 2°54.094 324.4 12.9 321 11.6
2010-06-10 08:09:13 51°15.333 2°54.076 324.3 12.9 320 11.5
2010-06-10 08:09:18 51°15.347 2°54.058 324.2 12.9 320 11.3
2010-06-10 08:09:22 51°15.358 2°54.044 324.3 12.9 321 11.5
2010-06-10 08:09:28 51°15.374 2°54.022 324.4 12.8 321 11.4
2010-06-10 08:09:33 51°15.388 2°54.004 324.4 12.8 321 11.5
2010-06-10 08:09:37 51°15.399 2°53.99 324.3 12.8 321 11.6
2010-06-10 08:09:42 51°15.413 2°53.972 324.5 12.9 321 11.6
2010-06-10 08:09:48 51°15.429 2°53.95 324.5 12.9 320 11.6
2010-06-10 08:09:53 51°15.443 2°53.932 324.3 12.8 321 11.6
2010-06-10 08:09:58 51°15.457 2°53.913 324 12.8 320 11.7
2010-06-10 08:10:03 51°15.471 2°53.896 324.1 12.9 321 11.9
2010-06-10 08:10:08 51°15.484 2°53.877 324.2 12.9 321 11.8
2010-06-10 08:10:13 51°15.498 2°53.859 324.5 12.9 321 11.6
2010-06-10 08:10:18 51°15.512 2°53.841 324.5 12.9 319 11.6
2010-06-10 08:10:22 51°15.523 2°53.826 324.3 12.9 321 11.9
2010-06-10 08:10:28 51°15.539 2°53.805 324.3 12.9 321 11.8
2010-06-10 08:10:32 51°15.55 2°53.79 324.5 12.9 321 11.9
2010-06-10 08:10:38 51°15.567 2°53.769 324.9 12.9 321 11.8
2010-06-10 08:10:42 51°15.578 2°53.755 325.1 12.8 322 11.9
2010-06-10 08:10:48 51°15.595 2°53.733 324.8 12.8 320 11.9
2010-06-10 08:10:53 51°15.609 2°53.717 326 12.8 326 12
2010-06-10 08:10:57 51°15.621 2°53.703 327.8 12.8 323 12
2010-06-10 08:11:03 51°15.639 2°53.685 328.9 12.7 327 12.1
2010-06-10 08:11:08 51°15.654 2°53.671 331.3 12.8 329 12.2
2010-06-10 08:11:13 51°15.669 2°53.658 333.2 12.7 332 12.2
2010-06-10 08:11:18 51°15.685 2°53.644 335 12.7 331 12.2
2010-06-10 08:11:22 51°15.698 2°53.634 336 12.7 333 12.1
2010-06-10 08:11:28 51°15.717 2°53.619 337.2 12.7 334 12.2
2010-06-10 08:11:33 51°15.733 2°53.607 338.4 12.8 335 12.4
2010-06-10 08:11:38 51°15.749 2°53.595 339 12.8 336 12.2
2010-06-10 08:11:42 51°15.762 2°53.586 339.6 12.7 336 12.4
2010-06-10 08:11:48 51°15.781 2°53.573 340.3 12.8 337 12.2
2010-06-10 08:11:53 51°15.797 2°53.562 340.8 12.8 338 12.3
2010-06-10 08:11:57 51°15.81 2°53.553 341.2 12.7 337 12.1
2010-06-10 08:12:02 51°15.827 2°53.542 341.3 12.7 337 12.3
2010-06-10 08:12:08 51°15.846 2°53.529 340.8 12.7 337 12.4
2010-06-10 08:12:13 51°15.863 2°53.519 340.8 12.7 337 11.8
2010-06-10 08:12:18 51°15.879 2°53.508 340.7 12.7 337 12.2
2010-06-10 08:12:23 51°15.895 2°53.497 340.8 12.7 337 12.2
2010-06-10 08:12:28 51°15.911 2°53.486 340.8 12.7 337 12.3
2010-06-10 08:12:32 51°15.924 2°53.478 341.1 12.7 337 12.3
2010-06-10 08:12:38 51°15.944 2°53.464 340.7 12.7 337 12.4
2010-06-10 08:12:42 51°15.957 2°53.456 340.9 12.7 337 12.4
2010-06-10 08:12:48 51°15.976 2°53.443 340.6 12.6 337 12.2
2010-06-10 08:12:52 51°15.989 2°53.434 340.6 12.6 337 12.4
2010-06-10 08:12:58 51°16.008 2°53.421 340.4 12.6 337 12.4
2010-06-10 08:13:03 51°16.024 2°53.41 340.5 12.6 337 12.7
2010-06-10 08:13:08 51°16.04 2°53.399 340.3 12.6 336 12.5
2010-06-10 08:13:13 51°16.056 2°53.388 340.4 12.6 336 12.6
2010-06-10 08:13:17 51°16.069 2°53.379 340.2 12.6 337 12.6
2010-06-10 08:13:23 51°16.088 2°53.365 339.9 12.6 337 12.6
2010-06-10 08:13:28 51°16.105 2°53.354 340.2 12.6 337 12.7
2010-06-10 08:13:33 51°16.121 2°53.343 339.8 12.7 336 12.8
2010-06-10 08:13:38 51°16.137 2°53.332 339.9 12.6 337 12.5
2010-06-10 08:13:42 51°16.15 2°53.323 340 12.6 337 12.7
2010-06-10 08:13:48 51°16.169 2°53.31 340.1 12.6 337 12.7
2010-06-10 08:13:53 51°16.185 2°53.299 340.4 12.6 337 12.7
2010-06-10 08:13:57 51°16.198 2°53.29 340.4 12.7 337 12.7
2010-06-10 08:14:02 51°16.214 2°53.28 340.3 12.7 337 12.6
2010-06-10 08:14:08 51°16.234 2°53.267 340.4 12.7 337 12.5
2010-06-10 08:14:13 51°16.25 2°53.255 340 12.6 337 13.1
2010-06-10 08:14:18 51°16.266 2°53.244 339.7 12.6 337 12.8
2010-06-10 08:14:23 51°16.282 2°53.233 339.8 12.6 337 12.9
2010-06-10 08:14:28 51°16.298 2°53.222 339.6 12.7 336 12.8
2010-06-10 08:14:33 51°16.314 2°53.211 339.3 12.6 337 12.7
2010-06-10 08:14:38 51°16.33 2°53.2 339.6 12.6 337 12.8
2010-06-10 08:14:42 51°16.343 2°53.191 339.6 12.7 337 12.9
2010-06-10 08:14:48 51°16.362 2°53.178 339.5 12.7 337 12.9
2010-06-10 08:14:52 51°16.375 2°53.169 339.6 12.7 336 12.8
2010-06-10 08:14:58 51°16.395 2°53.156 339.5 12.6 336 12.6
2010-06-10 08:15:02 51°16.407 2°53.147 339.3 12.6 336 12.7
2010-06-10 08:15:08 51°16.427 2°53.134 339.3 12.7 337 12.8
2010-06-10 08:15:12 51°16.44 2°53.125 339.4 12.6 336 12.7
2010-06-10 08:15:17 51°16.456 2°53.114 339.1 12.6 336 12.6
2010-06-10 08:15:23 51°16.475 2°53.1 339 12.6 336 12.6
2010-06-10 08:15:28 51°16.491 2°53.089 339.4 12.6 337 12.5
2010-06-10 08:15:33 51°16.507 2°53.078 339.8 12.6 337 12.7
2010-06-10 08:15:38 51°16.523 2°53.067 339.7 12.6 336 12.5
2010-06-10 08:15:42 51°16.536 2°53.058 339.5 12.6 336 12.4
2010-06-10 08:15:48 51°16.555 2°53.045 339.2 12.6 336 12.5
2010-06-10 08:15:53 51°16.571 2°53.034 339.2 12.6 337 12.3
2010-06-10 08:15:58 51°16.587 2°53.023 339.8 12.6 337 12.4
2010-06-10 08:16:02 51°16.6 2°53.014 339.9 12.6 337 12.2
2010-06-10 08:16:08 51°16.619 2°53.001 339.8 12.5 337 12
2010-06-10 08:16:13 51°16.635 2°52.99 339.7 12.6 337 12.1
2010-06-10 08:16:17 51°16.648 2°52.982 339.6 12.6 337 12.2
2010-06-10 08:16:22 51°16.664 2°52.97 339.5 12.6 336 12.2
2010-06-10 08:16:28 51°16.683 2°52.957 339.1 12.6 336 11.9
2010-06-10 08:16:33 51°16.699 2°52.946 339.2 12.5 337 11.6
2010-06-10 08:16:38 51°16.715 2°52.934 339.2 12.5 336 11.7
2010-06-10 08:16:43 51°16.731 2°52.923 339.2 12.5 336 11.7
2010-06-10 08:16:48 51°16.747 2°52.912 338.8 12.5 336 11.6
2010-06-10 08:16:52 51°16.76 2°52.903 339.1 12.5 336 11.3
2010-06-10 08:16:58 51°16.779 2°52.89 338.9 12.5 337 11.2
2010-06-10 08:17:02 51°16.791 2°52.881 339.3 12.4 337 10.4
2010-06-10 08:17:08 51°16.81 2°52.868 339.6 12.4 337 10.4
2010-06-10 08:17:12 51°16.823 2°52.859 339.7 12.4 336 10.3
2010-06-10 08:17:18 51°16.842 2°52.846 339.1 12.4 337 10.3
2010-06-10 08:17:22 51°16.854 2°52.837 339.7 12.4 336 10.3
2010-06-10 08:17:28 51°16.873 2°52.824 339 12.3 336 9.9
2010-06-10 08:17:33 51°16.889 2°52.813 339.7 12.4 337 10.2
2010-06-10 08:17:37 51°16.902 2°52.804 339.7 12.4 337 9.9
2010-06-10 08:17:43 51°16.921 2°52.791 339.8 12.4 337 10.3
2010-06-10 08:17:48 51°16.937 2°52.781 339.7 12.5 337 10.3
2010-06-10 08:17:53 51°16.953 2°52.769 339.3 12.5 337 10.3
2010-06-10 08:17:58 51°16.968 2°52.758 339.5 12.5 337 10.3
2010-06-10 08:18:02 51°16.981 2°52.75 339.8 12.4 336 10.5
2010-06-10 08:18:08 51°17 2°52.736 339.4 12.5 337 10.8
2010-06-10 08:18:13 51°17.016 2°52.725 339.5 12.5 337 10.8
2010-06-10 08:18:17 51°17.029 2°52.716 339.5 12.5 336 11
2010-06-10 08:18:22 51°17.045 2°52.705 339.4 12.5 336 11
2010-06-10 08:18:28 51°17.064 2°52.691 339.2 12.5 336 11
2010-06-10 08:18:33 51°17.08 2°52.68 339 12.6 336 10.9
2010-06-10 08:18:37 51°17.093 2°52.672 339.1 12.6 339 10.6
2010-06-10 08:18:43 51°17.112 2°52.66 340 12.4 340 10.4
2010-06-10 08:18:48 51°17.129 2°52.655 344.7 12.3 346 10.2
2010-06-10 08:18:53 51°17.145 2°52.647 347 12.3 346 10.5
2010-06-10 08:18:58 51°17.162 2°52.643 349.7 12.3 351 10.5
2010-06-10 08:19:02 51°17.176 2°52.639 351.5 12.4 350 10.7
2010-06-10 08:19:08 51°17.196 2°52.635 353.3 12.4 353 10.6
2010-06-10 08:19:12 51°17.21 2°52.632 354.7 12.4 353 10.6
2010-06-10 08:19:18 51°17.231 2°52.63 355.9 12.4 355 10.7
2010-06-10 08:19:22 51°17.244 2°52.628 356.7 12.4 356 11
2010-06-10 08:19:28 51°17.265 2°52.627 357.2 12.4 358 10.8
2010-06-10 08:19:32 51°17.279 2°52.629 0.4 12.3 6 10.9
2010-06-10 08:19:38 51°17.298 2°52.636 6.7 12.2 13 11
2010-06-10 08:19:42 51°17.311 2°52.643 13.9 12.1 20 10.8
2010-06-10 08:19:48 51°17.329 2°52.657 21.1 12.1 26 10.8
2010-06-10 08:19:53 51°17.344 2°52.67 25.7 12.2 27 10.8
2010-06-10 08:19:57 51°17.356 2°52.68 27.5 12.3 30 10.7
2010-06-10 08:20:03 51°17.374 2°52.698 30.5 12.4 32 10.9
2010-06-10 08:20:08 51°17.388 2°52.713 32 12.4 34 10.8
2010-06-10 08:20:13 51°17.402 2°52.728 33.8 12.4 35 10.8
2010-06-10 08:20:18 51°17.416 2°52.745 34.5 12.5 37 10.9
2010-06-10 08:20:22 51°17.427 2°52.758 35.6 12.5 36 11
2010-06-10 08:20:28 51°17.444 2°52.779 36.4 12.5 39 11
2010-06-10 08:20:33 51°17.457 2°52.796 37.1 12.5 38 11
2010-06-10 08:20:37 51°17.468 2°52.81 37.7 12.6 39 11
2010-06-10 08:20:42 51°17.482 2°52.828 38.5 12.6 39 11.1
2010-06-10 08:20:48 51°17.498 2°52.848 38.4 12.6 39 11
2010-06-10 08:20:53 51°17.512 2°52.867 38.6 12.7 40 11
2010-06-10 08:20:58 51°17.526 2°52.884 38.6 12.7 39 11
2010-06-10 08:21:03 51°17.539 2°52.902 38.6 12.7 39 10.9
2010-06-10 08:21:08 51°17.553 2°52.92 38.6 12.7 39 11
2010-06-10 08:21:12 51°17.564 2°52.934 38.6 12.7 40 11.1
2010-06-10 08:21:18 51°17.58 2°52.956 38.8 12.7 41 11.2
2010-06-10 08:21:22 51°17.59 2°52.971 39.6 12.7 44 11
2010-06-10 08:21:28 51°17.604 2°52.997 43.3 12.6 50 10.8
2010-06-10 08:21:32 51°17.613 2°53.013 46.5 12.6 50 11
2010-06-10 08:21:38 51°17.625 2°53.041 50.3 12.7 55 10.9
2010-06-10 08:21:42 51°17.634 2°53.059 51.8 12.7 54 11
2010-06-10 08:21:48 51°17.645 2°53.088 53.9 12.7 59 11
2010-06-10 08:21:52 51°17.652 2°53.107 55.7 12.7 58 10.9
2010-06-10 08:21:57 51°17.661 2°53.132 57.3 12.8 60 11
2010-06-10 08:22:03 51°17.672 2°53.161 58.2 12.7 60 11
2010-06-10 08:22:08 51°17.68 2°53.186 59.3 12.7 62 10.8
2010-06-10 08:22:13 51°17.688 2°53.211 59.9 12.8 63 11.1
2010-06-10 08:22:18 51°17.696 2°53.237 60.7 12.8 63 11
2010-06-10 08:22:23 51°17.704 2°53.262 61 12.8 63 10.9
2010-06-10 08:22:28 51°17.712 2°53.287 61.5 12.8 64 10.8
2010-06-10 08:22:33 51°17.72 2°53.312 61.7 12.7 62 10.9
2010-06-10 08:22:37 51°17.726 2°53.332 61.6 12.8 63 10.9
2010-06-10 08:22:42 51°17.735 2°53.357 61.6 12.8 62 10.8
2010-06-10 08:22:48 51°17.744 2°53.387 61.1 12.8 62 11
2010-06-10 08:22:53 51°17.753 2°53.413 61 12.8 63 11
2010-06-10 08:22:57 51°17.759 2°53.433 61.1 12.9 63 11
2010-06-10 08:23:02 51°17.767 2°53.458 61.3 12.8 63 10.9
2010-06-10 08:23:07 51°17.775 2°53.483 61.5 12.8 63 10.8
2010-06-10 08:23:13 51°17.785 2°53.513 61.4 12.8 62 10.8
2010-06-10 08:23:18 51°17.793 2°53.539 61.1 12.8 63 10.9
2010-06-10 08:23:22 51°17.8 2°53.559 61.1 12.8 62 11
2010-06-10 08:23:28 51°17.809 2°53.589 61 12.8 63 10.7
2010-06-10 08:23:33 51°17.818 2°53.614 60.9 12.8 62 10.8
2010-06-10 08:23:38 51°17.826 2°53.639 60.9 12.7 63 10.8
2010-06-10 08:23:42 51°17.832 2°53.659 60.7 12.8 63 10.8
2010-06-10 08:23:48 51°17.842 2°53.689 61 12.8 62 11
2010-06-10 08:23:52 51°17.849 2°53.709 60.6 12.7 63 10.8
2010-06-10 08:23:58 51°17.859 2°53.739 60.6 12.7 62 10.9
2010-06-10 08:24:02 51°17.865 2°53.759 60.6 12.8 62 10.7
2010-06-10 08:24:08 51°17.875 2°53.789 60.3 12.7 62 10.7
2010-06-10 08:24:13 51°17.884 2°53.814 60.3 12.8 62 10.6
2010-06-10 08:24:18 51°17.892 2°53.838 60.8 12.8 62 10.7
2010-06-10 08:24:23 51°17.9 2°53.864 60.5 12.8 63 11
2010-06-10 08:24:28 51°17.908 2°53.889 60.6 12.8 63 10.8
2010-06-10 08:24:33 51°17.916 2°53.913 60.9 12.7 62 10.7
2010-06-10 08:24:38 51°17.925 2°53.938 60.6 12.7 62 10.6
2010-06-10 08:24:43 51°17.933 2°53.963 60.6 12.8 62 10.7
2010-06-10 08:24:48 51°17.941 2°53.988 60.3 12.7 62 10.8
2010-06-10 08:24:53 51°17.95 2°54.013 60.3 12.7 61 10.8
2010-06-10 08:24:57 51°17.957 2°54.033 60 12.7 62 10.6
2010-06-10 08:25:02 51°17.965 2°54.057 60 12.7 61 10.6
2010-06-10 08:25:08 51°17.975 2°54.087 59.7 12.7 62 10.6
2010-06-10 08:25:13 51°17.983 2°54.112 59.9 12.7 62 10.7
2010-06-10 08:25:17 51°17.99 2°54.131 59.8 12.7 62 10.9
2010-06-10 08:25:23 51°18 2°54.161 59.8 12.7 61 10.7
2010-06-10 08:25:28 51°18.009 2°54.185 60 12.7 61 10.6
2010-06-10 08:25:33 51°18.017 2°54.21 59.5 12.7 61 10.6
2010-06-10 08:25:38 51°18.026 2°54.235 59.7 12.7 61 10.6
2010-06-10 08:25:42 51°18.033 2°54.254 59.9 12.7 61 10.6
2010-06-10 08:25:48 51°18.043 2°54.284 59.7 12.7 61 10.8
2010-06-10 08:25:53 51°18.051 2°54.309 59.8 12.7 62 10.7
2010-06-10 08:25:58 51°18.06 2°54.334 59.9 12.8 62 10.8
2010-06-10 08:26:02 51°18.066 2°54.353 60.1 12.7 61 10.8
2010-06-10 08:26:08 51°18.077 2°54.383 59.9 12.7 61 10.6
2010-06-10 08:26:12 51°18.083 2°54.403 60 12.7 61 10.5
2010-06-10 08:26:17 51°18.092 2°54.428 59.7 12.8 61 10.7
2010-06-10 08:26:22 51°18.101 2°54.452 59.5 12.8 61 10.8
2010-06-10 08:26:28 51°18.111 2°54.482 59.3 12.8 62 10.8
2010-06-10 08:26:33 51°18.119 2°54.507 59.6 12.8 61 10.8
2010-06-10 08:26:37 51°18.126 2°54.526 59.6 12.8 61 10.6
2010-06-10 08:26:43 51°18.137 2°54.556 59.6 12.7 60 10.6
2010-06-10 08:26:48 51°18.145 2°54.581 59.5 12.7 61 10.5
2010-06-10 08:26:53 51°18.154 2°54.605 59.5 12.8 60 10.7
2010-06-10 08:26:57 51°18.161 2°54.624 59 12.8 61 10.7
2010-06-10 08:27:03 51°18.171 2°54.654 58.9 12.8 60 10.8
2010-06-10 08:27:08 51°18.18 2°54.679 59.2 12.8 60 10.6
2010-06-10 08:27:13 51°18.188 2°54.703 59.2 12.7 61 10.6
2010-06-10 08:27:17 51°18.195 2°54.723 59.6 12.8 61 10.8
2010-06-10 08:27:22 51°18.204 2°54.748 59.9 12.7 61 10.6
2010-06-10 08:27:27 51°18.212 2°54.772 59.7 12.8 61 10.8
2010-06-10 08:27:33 51°18.222 2°54.802 59.7 12.8 61 10.7
2010-06-10 08:27:38 51°18.231 2°54.826 59.4 12.7 61 10.6
2010-06-10 08:27:42 51°18.238 2°54.846 59.5 12.7 61 10.7
2010-06-10 08:27:48 51°18.248 2°54.876 59.6 12.7 60 10.7
2010-06-10 08:27:53 51°18.257 2°54.9 59.5 12.7 61 10.7
2010-06-10 08:27:58 51°18.265 2°54.925 59.6 12.7 60 10.6
2010-06-10 08:28:02 51°18.272 2°54.944 59.3 12.7 60 10.7
2010-06-10 08:28:08 51°18.283 2°54.974 59.5 12.7 60 10.6
2010-06-10 08:28:12 51°18.29 2°54.993 58.2 12.7 59 10.7
2010-06-10 08:28:18 51°18.301 2°55.021 57.4 12.6 57 10.7
2010-06-10 08:28:22 51°18.309 2°55.04 56.6 12.6 57 10.7
2010-06-10 08:28:28 51°18.321 2°55.068 55.8 12.7 56 10.8
2010-06-10 08:28:32 51°18.329 2°55.087 55.2 12.7 57 10.8
2010-06-10 08:28:37 51°18.339 2°55.11 54.8 12.7 55 10.7
2010-06-10 08:28:43 51°18.351 2°55.137 54.2 12.7 56 10.9
2010-06-10 08:28:48 51°18.361 2°55.16 54.2 12.6 54 10.9
2010-06-10 08:28:53 51°18.371 2°55.183 53.9 12.7 55 10.9
2010-06-10 08:28:58 51°18.382 2°55.205 53.8 12.7 54 10.8
2010-06-10 08:29:03 51°18.392 2°55.228 53.5 12.7 55 10.7
2010-06-10 08:29:08 51°18.402 2°55.251 53.6 12.7 55 10.9
2010-06-10 08:29:13 51°18.412 2°55.275 54 12.7 55 10.9
2010-06-10 08:29:17 51°18.42 2°55.293 53.7 12.7 55 10.7
2010-06-10 08:29:22 51°18.43 2°55.316 54 12.8 56 10.8
2010-06-10 08:29:28 51°18.443 2°55.344 54.4 12.8 55 10.9
2010-06-10 08:29:33 51°18.453 2°55.367 54 12.8 55 11
2010-06-10 08:29:37 51°18.461 2°55.386 53.8 12.7 55 10.8
2010-06-10 08:29:42 51°18.471 2°55.409 53.8 12.7 55 10.8
2010-06-10 08:29:48 51°18.483 2°55.436 53.8 12.7 55 10.9
2010-06-10 08:29:53 51°18.493 2°55.459 53.9 12.7 55 11
2010-06-10 08:29:58 51°18.503 2°55.482 53.8 12.7 55 10.9
2010-06-10 08:30:02 51°18.511 2°55.501 54 12.7 55 10.9
2010-06-10 08:30:08 51°18.524 2°55.529 54.2 12.7 55 10.7
2010-06-10 08:30:13 51°18.534 2°55.552 53.9 12.7 55 10.8
2010-06-10 08:30:18 51°18.544 2°55.575 53.8 12.8 56 10.7
2010-06-10 08:30:22 51°18.552 2°55.594 54.3 12.8 55 10.8
2010-06-10 08:30:28 51°18.564 2°55.621 54.1 12.7 55 10.8
2010-06-10 08:30:32 51°18.572 2°55.64 53.9 12.7 55 10.9
2010-06-10 08:30:38 51°18.585 2°55.667 54 12.8 55 10.8
2010-06-10 08:30:42 51°18.593 2°55.686 53.8 12.8 55 10.8
2010-06-10 08:30:48 51°18.605 2°55.713 53.8 12.8 55 10.8
2010-06-10 08:30:53 51°18.615 2°55.737 53.9 12.8 55 10.9
2010-06-10 08:30:58 51°18.625 2°55.76 54.2 12.8 55 10.8
2010-06-10 08:31:03 51°18.635 2°55.783 54.2 12.8 54 10.9
2010-06-10 08:31:08 51°18.645 2°55.807 54.2 12.7 56 10.7
2010-06-10 08:31:13 51°18.655 2°55.83 54.6 12.8 55 10.8
2010-06-10 08:31:17 51°18.663 2°55.849 54.2 12.8 56 10.8
2010-06-10 08:31:23 51°18.675 2°55.877 54.4 12.7 55 10.9
2010-06-10 08:31:28 51°18.685 2°55.9 54.5 12.7 56 10.9
2010-06-10 08:31:33 51°18.695 2°55.923 54.4 12.7 56 11
2010-06-10 08:31:37 51°18.704 2°55.942 54.4 12.8 55 11
2010-06-10 08:31:42 51°18.714 2°55.965 54.3 12.8 54 10.8
2010-06-10 08:31:48 51°18.726 2°55.993 53.8 12.8 56 11
2010-06-10 08:31:53 51°18.736 2°56.016 54.1 12.7 55 11
2010-06-10 08:31:58 51°18.746 2°56.039 54.1 12.8 57 10.8
2010-06-10 08:32:02 51°18.754 2°56.058 54.5 12.7 54 10.9
2010-06-10 08:32:08 51°18.766 2°56.085 54 12.7 56 10.8
2010-06-10 08:32:13 51°18.776 2°56.109 54.3 12.7 55 10.8
2010-06-10 08:32:18 51°18.786 2°56.132 54.3 12.7 56 10.9
2010-06-10 08:32:22 51°18.794 2°56.151 54.4 12.7 56 10.9
2010-06-10 08:32:28 51°18.806 2°56.178 54.4 12.7 55 10.8
2010-06-10 08:32:32 51°18.814 2°56.197 54.4 12.6 56 11
2010-06-10 08:32:38 51°18.826 2°56.224 54.2 12.7 55 10.9
2010-06-10 08:32:42 51°18.834 2°56.243 54.2 12.7 56 10.8
2010-06-10 08:32:48 51°18.846 2°56.27 54.3 12.7 55 10.9
2010-06-10 08:32:52 51°18.854 2°56.289 54 12.6 54 10.9
2010-06-10 08:32:58 51°18.866 2°56.316 53.8 12.7 56 10.9
2010-06-10 08:33:02 51°18.874 2°56.335 54.1 12.7 54 11
2010-06-10 08:33:08 51°18.886 2°56.362 54 12.6 55 10.8
2010-06-10 08:33:13 51°18.897 2°56.385 54.2 12.7 55 11
2010-06-10 08:33:17 51°18.905 2°56.404 54.4 12.8 55 10.9
2010-06-10 08:33:23 51°18.917 2°56.432 54.5 12.7 55 10.9
2010-06-10 08:33:28 51°18.927 2°56.455 54.5 12.8 55 10.8
2010-06-10 08:33:33 51°18.937 2°56.478 54.4 12.8 56 10.9
2010-06-10 08:33:37 51°18.945 2°56.497 54.5 12.7 56 10.9
2010-06-10 08:33:43 51°18.957 2°56.525 54.7 12.8 56 10.9
2010-06-10 08:33:48 51°18.966 2°56.549 54.9 12.8 55 10.9
2010-06-10 08:33:53 51°18.976 2°56.572 54.5 12.7 55 10.9
2010-06-10 08:33:57 51°18.985 2°56.59 54.3 12.7 55 10.8
2010-06-10 08:34:02 51°18.995 2°56.614 54.2 12.7 55 10.9
2010-06-10 08:34:08 51°19.007 2°56.642 53.9 12.7 55 11.2
2010-06-10 08:34:13 51°19.017 2°56.665 54 12.7 55 11
2010-06-10 08:34:18 51°19.027 2°56.688 54.3 12.7 55 10.9
2010-06-10 08:34:22 51°19.035 2°56.706 54.4 12.7 55 10.9
2010-06-10 08:34:28 51°19.047 2°56.734 54.4 12.7 55 10.9
2010-06-10 08:34:33 51°19.057 2°56.757 54.3 12.7 55 11.1
2010-06-10 08:34:38 51°19.068 2°56.78 54 12.7 55 11
2010-06-10 08:34:42 51°19.076 2°56.799 53.9 12.8 55 11.2
2010-06-10 08:34:48 51°19.088 2°56.826 53.8 12.7 55 11.1
2010-06-10 08:34:52 51°19.096 2°56.845 53.9 12.7 55 11
2010-06-10 08:34:58 51°19.108 2°56.873 54.2 12.7 55 11
2010-06-10 08:35:02 51°19.116 2°56.892 54.2 12.8 56 11
2010-06-10 08:35:08 51°19.129 2°56.92 54.3 12.8 55 11
2010-06-10 08:35:12 51°19.137 2°56.938 54.3 12.8 55 11
2010-06-10 08:35:18 51°19.149 2°56.965 54.3 12.7 55 10.9
2010-06-10 08:35:23 51°19.159 2°56.988 54 12.7 54 10.9
2010-06-10 08:35:28 51°19.169 2°57.012 53.9 12.8 55 11.1
2010-06-10 08:35:33 51°19.179 2°57.035 54.1 12.7 55 10.8
2010-06-10 08:35:37 51°19.187 2°57.053 54.5 12.7 56 10.9
2010-06-10 08:35:43 51°19.2 2°57.081 54.6 12.8 55 11.1
2010-06-10 08:35:48 51°19.209 2°57.104 54.3 12.7 56 11
2010-06-10 08:35:52 51°19.217 2°57.123 54.8 12.7 55 10.9
2010-06-10 08:35:57 51°19.227 2°57.146 54.5 12.7 55 10.9
2010-06-10 08:36:03 51°19.24 2°57.174 54.5 12.8 55 10.9
2010-06-10 08:36:08 51°19.25 2°57.198 54.6 12.8 55 11
2010-06-10 08:36:13 51°19.26 2°57.221 54.4 12.7 56 11
2010-06-10 08:36:18 51°19.27 2°57.244 54.6 12.8 54 11.1
2010-06-10 08:36:22 51°19.278 2°57.262 54.2 12.7 56 11
2010-06-10 08:36:28 51°19.29 2°57.29 54.5 12.8 55 11
2010-06-10 08:36:33 51°19.3 2°57.314 54.4 12.8 56 11.1
2010-06-10 08:36:38 51°19.31 2°57.336 54.5 12.8 55 11
2010-06-10 08:36:42 51°19.318 2°57.355 54.5 12.8 55 11.1
2010-06-10 08:36:48 51°19.33 2°57.382 54.5 12.8 55 11
2010-06-10 08:36:53 51°19.341 2°57.405 54.4 12.7 55 10.8
2010-06-10 08:36:57 51°19.348 2°57.424 54.4 12.8 55 11.2
2010-06-10 08:37:02 51°19.359 2°57.447 54.3 12.8 55 11
2010-06-10 08:37:08 51°19.371 2°57.475 54.5 12.8 55 11.2
2010-06-10 08:37:13 51°19.381 2°57.498 54.3 12.8 55 10.8
2010-06-10 08:37:18 51°19.391 2°57.522 54.6 12.9 56 11
2010-06-10 08:37:23 51°19.402 2°57.545 54.1 12.8 55 11
2010-06-10 08:37:28 51°19.411 2°57.569 54.7 12.9 56 11.1
2010-06-10 08:37:32 51°19.42 2°57.587 54.3 12.9 54 11.2
2010-06-10 08:37:38 51°19.432 2°57.615 54.1 12.9 55 11
2010-06-10 08:37:42 51°19.441 2°57.633 53.9 12.8 55 11.1
2010-06-10 08:37:48 51°19.453 2°57.662 54.3 12.9 55 11.1
2010-06-10 08:37:52 51°19.461 2°57.68 54.3 12.9 55 11.1
2010-06-10 08:37:57 51°19.471 2°57.704 54.1 12.9 55 11.1
2010-06-10 08:38:03 51°19.484 2°57.732 54.1 12.9 55 11.1
2010-06-10 08:38:08 51°19.494 2°57.756 54.5 12.9 56 11.1
2010-06-10 08:38:13 51°19.504 2°57.779 54.5 12.9 55 11.1
2010-06-10 08:38:18 51°19.514 2°57.803 54.5 12.9 56 11.1
2010-06-10 08:38:22 51°19.522 2°57.822 54.5 13 57 11.2
2010-06-10 08:38:28 51°19.533 2°57.851 56.1 12.9 58 11.1
2010-06-10 08:38:33 51°19.543 2°57.876 56.8 12.9 58 11.2
2010-06-10 08:38:38 51°19.552 2°57.901 57.7 13 60 11.2
2010-06-10 08:38:42 51°19.559 2°57.92 58.3 13 58 11.1
2010-06-10 08:38:48 51°19.57 2°57.951 58.3 13 61 11
2010-06-10 08:38:53 51°19.579 2°57.975 59.3 13 59 11.1
2010-06-10 08:38:57 51°19.586 2°57.995 59.1 13 62 11.2
2010-06-10 08:39:03 51°19.597 2°58.025 59.8 13 59 10.9
2010-06-10 08:39:08 51°19.605 2°58.05 59.4 13 61 11
2010-06-10 08:39:13 51°19.614 2°58.076 59.6 13 60 11.1
2010-06-10 08:39:18 51°19.623 2°58.101 59.6 13 61 11.2
2010-06-10 08:39:23 51°19.632 2°58.126 59.9 13 61 11.2
2010-06-10 08:39:28 51°19.641 2°58.151 60.1 13 61 11.2
2010-06-10 08:39:33 51°19.649 2°58.176 60 13 61 11
2010-06-10 08:39:38 51°19.658 2°58.202 60.1 13 61 11.1
2010-06-10 08:39:43 51°19.667 2°58.227 59.9 13 61 11.1
2010-06-10 08:39:48 51°19.675 2°58.252 60.1 13 61 11.2
2010-06-10 08:39:52 51°19.682 2°58.272 60.2 13 61 11
2010-06-10 08:39:57 51°19.691 2°58.297 59.6 13 60 11.1
2010-06-10 08:40:02 51°19.7 2°58.322 59.5 13.1 61 11.3
2010-06-10 08:40:08 51°19.711 2°58.353 59.5 13 60 11
2010-06-10 08:40:13 51°19.72 2°58.378 59.3 13 61 11
2010-06-10 08:40:17 51°19.727 2°58.398 59.6 13.1 60 11.2
2010-06-10 08:40:22 51°19.736 2°58.423 59.4 13.1 61 11.2
2010-06-10 08:40:28 51°19.747 2°58.453 59.4 13.1 60 11.2
2010-06-10 08:40:33 51°19.756 2°58.478 59.4 13 61 11.2
2010-06-10 08:40:38 51°19.764 2°58.504 59.7 13.1 61 11.1
2010-06-10 08:40:42 51°19.772 2°58.524 59.8 13.1 60 11.1
2010-06-10 08:40:48 51°19.782 2°58.554 59.2 13 60 11.2
2010-06-10 08:40:53 51°19.791 2°58.58 59.3 13.1 61 11.3
2010-06-10 08:40:58 51°19.8 2°58.604 59.7 13.1 60 11.2
2010-06-10 08:41:02 51°19.808 2°58.625 59.4 13.1 60 11.2
2010-06-10 08:41:08 51°19.818 2°58.654 58.9 13 60 11
2010-06-10 08:41:13 51°19.827 2°58.68 59.5 13.1 60 11.1
2010-06-10 08:41:17 51°19.835 2°58.7 59.1 13.1 60 11.1
2010-06-10 08:41:22 51°19.844 2°58.725 59.1 13.1 61 11.1
2010-06-10 08:41:28 51°19.854 2°58.755 59.8 13.1 60 11
2010-06-10 08:41:33 51°19.863 2°58.78 59.1 13.1 61 11.2
2010-06-10 08:41:38 51°19.872 2°58.805 59.6 13.1 60 11.1
2010-06-10 08:41:43 51°19.882 2°58.83 59.2 13.1 60 11.1
2010-06-10 08:41:48 51°19.89 2°58.855 59.2 13.1 60 11.1
2010-06-10 08:41:52 51°19.898 2°58.875 59.3 13.1 59 11.1
2010-06-10 08:41:58 51°19.909 2°58.905 59.1 13.1 60 11.2
2010-06-10 08:42:02 51°19.916 2°58.925 58.9 13.1 60 11.1
2010-06-10 08:42:08 51°19.927 2°58.956 59.1 13.1 61 11.1
2010-06-10 08:42:12 51°19.934 2°58.976 59.2 13.1 60 11.3
2010-06-10 08:42:17 51°19.943 2°59.001 59.2 13.1 61 11.4
2010-06-10 08:42:23 51°19.954 2°59.031 59.6 13.2 60 11.2
2010-06-10 08:42:28 51°19.963 2°59.057 59.3 13.2 60 11.1
2010-06-10 08:42:33 51°19.972 2°59.082 59.2 13.1 60 11.1
2010-06-10 08:42:37 51°19.979 2°59.102 59.3 13.1 61 11.1
2010-06-10 08:42:42 51°19.988 2°59.128 59.6 13.1 61 10.9
2010-06-10 08:42:48 51°19.998 2°59.158 59.8 13.1 64 11
2010-06-10 08:42:53 51°20.005 2°59.185 62.8 13.1 64 11.1
2010-06-10 08:42:58 51°20.012 2°59.212 64 13.1 68 11.2
2010-06-10 08:43:02 51°20.018 2°59.233 65.8 13.1 67 11.2
2010-06-10 08:43:08 51°20.026 2°59.266 66.2 13.2 71 11.1
2010-06-10 08:43:13 51°20.032 2°59.293 67.8 13.2 69 11.2
2010-06-10 08:43:17 51°20.037 2°59.315 68.1 13.2 71 11.3
2010-06-10 08:43:22 51°20.043 2°59.342 69.1 13.2 70 11.1
2010-06-10 08:43:28 51°20.051 2°59.375 69.2 13.1 70 11.3
2010-06-10 08:43:33 51°20.056 2°59.403 69.6 13.2 71 11.1
2010-06-10 08:43:38 51°20.063 2°59.431 70 13.2 71 11.2
2010-06-10 08:43:43 51°20.068 2°59.458 70.3 13.2 72 11.1
2010-06-10 08:43:48 51°20.074 2°59.486 70.5 13.2 71 11.2
2010-06-10 08:43:53 51°20.08 2°59.514 70.3 13.2 72 11.1
2010-06-10 08:43:58 51°20.086 2°59.541 70.5 13.2 71 11
2010-06-10 08:44:02 51°20.09 2°59.564 70.5 13.3 72 11.1
2010-06-10 08:44:08 51°20.097 2°59.597 70.5 13.2 72 11.1
2010-06-10 08:44:12 51°20.102 2°59.619 70.7 13.2 71 11.1
2010-06-10 08:44:18 51°20.109 2°59.653 70.1 13.2 72 11.1
2010-06-10 08:44:22 51°20.114 2°59.675 70.5 13.2 71 11
2010-06-10 08:44:28 51°20.121 2°59.708 70.2 13.3 72 11.1
2010-06-10 08:44:33 51°20.127 2°59.736 69.9 13.2 71 11.1
2010-06-10 08:44:37 51°20.132 2°59.758 69.8 13.1 71 11
2010-06-10 08:44:43 51°20.139 2°59.791 70.2 13.2 71 11
2010-06-10 08:44:48 51°20.144 2°59.819 69.9 13.2 71 11
2010-06-10 08:44:53 51°20.151 2°59.846 70.1 13.2 71 11
2010-06-10 08:44:58 51°20.156 2°59.874 70.1 13.3 71 11.2
2010-06-10 08:45:02 51°20.162 2°59.896 69.8 13.2 70 10.9
2010-06-10 08:45:08 51°20.169 2°59.929 69.7 13.2 70 10.9
2010-06-10 08:45:13 51°20.175 2°59.957 69.7 13.2 71 11.1
2010-06-10 08:45:18 51°20.181 2°59.984 69.8 13.2 71 11
2010-06-10 08:45:22 51°20.186 3°0.006 69.8 13.2 71 10.8
2010-06-10 08:45:28 51°20.193 3°0.039 69.9 13.2 72 10.9
2010-06-10 08:45:33 51°20.199 3°0.067 70.5 13.2 71 10.7
2010-06-10 08:45:37 51°20.204 3°0.089 70 13.2 70 10.8
2010-06-10 08:45:42 51°20.21 3°0.117 69.7 13.2 70 10.9
2010-06-10 08:45:48 51°20.217 3°0.15 69.6 13.3 71 11.1
2010-06-10 08:45:53 51°20.223 3°0.178 69.8 13.2 70 10.9
2010-06-10 08:45:58 51°20.229 3°0.205 69.6 13.2 71 11.1
2010-06-10 08:46:03 51°20.235 3°0.233 70 13.2 71 11.1
2010-06-10 08:46:08 51°20.241 3°0.261 70.1 13.2 71 10.7
2010-06-10 08:46:13 51°20.247 3°0.288 69.8 13.2 71 10.8
2010-06-10 08:46:18 51°20.253 3°0.316 69.5 13.2 71 10.8
2010-06-10 08:46:22 51°20.258 3°0.338 69.2 13.2 71 10.8
2010-06-10 08:46:28 51°20.265 3°0.371 70.2 13.2 70 10.8
2010-06-10 08:46:32 51°20.27 3°0.393 69.5 13.3 71 10.9
2010-06-10 08:46:38 51°20.277 3°0.426 69.9 13.2 69 10.8
2010-06-10 08:46:42 51°20.282 3°0.448 69.4 13.2 71 10.8
2010-06-10 08:46:48 51°20.29 3°0.481 69.6 13.3 69 10.9
2010-06-10 08:46:53 51°20.296 3°0.509 69.3 13.3 71 10.7
2010-06-10 08:46:57 51°20.301 3°0.531 69.3 13.3 69 10.9
2010-06-10 08:47:03 51°20.308 3°0.565 69.2 13.3 72 10.9
2010-06-10 08:47:08 51°20.315 3°0.592 69.4 13.3 70 10.9
2010-06-10 08:47:13 51°20.32 3°0.62 69.8 13.3 71 10.8
2010-06-10 08:47:18 51°20.327 3°0.648 69.8 13.3 70 10.8
2010-06-10 08:47:22 51°20.332 3°0.67 69.8 13.3 71 10.8
2010-06-10 08:47:28 51°20.339 3°0.704 69.8 13.3 71 11
2010-06-10 08:47:33 51°20.345 3°0.732 69.8 13.3 71 10.8
2010-06-10 08:47:37 51°20.35 3°0.754 70.2 13.3 71 11
2010-06-10 08:47:42 51°20.356 3°0.781 69.8 13.2 70 11
2010-06-10 08:47:48 51°20.364 3°0.815 69.3 13.2 70 10.8
2010-06-10 08:47:53 51°20.37 3°0.842 69.3 13.3 70 10.9
2010-06-10 08:47:58 51°20.377 3°0.87 69.2 13.3 70 10.8
2010-06-10 08:48:03 51°20.383 3°0.898 69 13.3 70 11
2010-06-10 08:48:08 51°20.389 3°0.925 69 13.3 70 10.8
2010-06-10 08:48:13 51°20.396 3°0.953 69.3 13.4 70 11
2010-06-10 08:48:18 51°20.402 3°0.981 69.3 13.3 70 10.5
2010-06-10 08:48:22 51°20.407 3°1.003 69.4 13.3 71 10.9
2010-06-10 08:48:28 51°20.415 3°1.037 69.8 13.4 70 10.9
2010-06-10 08:48:32 51°20.42 3°1.059 69.4 13.3 70 10.8
2010-06-10 08:48:38 51°20.427 3°1.092 69 13.3 71 11
2010-06-10 08:48:42 51°20.432 3°1.114 69.8 13.3 70 11
2010-06-10 08:48:48 51°20.439 3°1.148 69.4 13.3 70 10.8
2010-06-10 08:48:52 51°20.444 3°1.17 69.6 13.4 70 11
2010-06-10 08:48:57 51°20.451 3°1.198 69.2 13.4 70 11
2010-06-10 08:49:03 51°20.458 3°1.231 69 13.3 70 10.8
2010-06-10 08:49:08 51°20.465 3°1.259 69.1 13.3 70 10.7
2010-06-10 08:49:13 51°20.471 3°1.287 69.3 13.3 70 11
2010-06-10 08:49:17 51°20.476 3°1.309 69.1 13.3 69 11.1
2010-06-10 08:49:23 51°20.484 3°1.342 69 13.3 70 11
2010-06-10 08:49:28 51°20.49 3°1.37 69.3 13.3 69 10.9
2010-06-10 08:49:33 51°20.497 3°1.397 69.1 13.4 70 11.1
2010-06-10 08:49:37 51°20.502 3°1.419 68.8 13.3 70 11
2010-06-10 08:49:43 51°20.509 3°1.453 69.1 13.3 70 10.9
2010-06-10 08:49:48 51°20.516 3°1.481 69.3 13.3 70 11.1
2010-06-10 08:49:53 51°20.522 3°1.508 69.7 13.3 70 11
2010-06-10 08:49:58 51°20.528 3°1.536 69.4 13.4 71 11
2010-06-10 08:50:03 51°20.535 3°1.564 69.4 13.4 70 10.9
2010-06-10 08:50:08 51°20.541 3°1.592 69.1 13.4 70 10.9
2010-06-10 08:50:13 51°20.547 3°1.62 69.2 13.4 70 10.7
2010-06-10 08:50:17 51°20.552 3°1.642 69.1 13.4 71 11
2010-06-10 08:50:23 51°20.56 3°1.675 69.4 13.3 70 10.9
2010-06-10 08:50:27 51°20.565 3°1.698 70 13.4 70 11
2010-06-10 08:50:32 51°20.572 3°1.725 69.3 13.4 69 10.9
2010-06-10 08:50:38 51°20.579 3°1.759 69.4 13.4 70 10.9
2010-06-10 08:50:43 51°20.586 3°1.786 69.6 13.4 69 10.9
2010-06-10 08:50:48 51°20.592 3°1.814 69.1 13.3 71 11
2010-06-10 08:50:53 51°20.598 3°1.842 69.9 13.4 69 11
2010-06-10 08:50:58 51°20.605 3°1.87 69.3 13.4 70 11.1
2010-06-10 08:51:03 51°20.612 3°1.898 69.1 13.4 69 11
2010-06-10 08:51:08 51°20.618 3°1.925 68.8 13.4 69 10.8
2010-06-10 08:51:13 51°20.625 3°1.953 69 13.5 69 10.9
2010-06-10 08:51:17 51°20.63 3°1.976 69.2 13.4 70 10.8
2010-06-10 08:51:23 51°20.638 3°2.009 69.5 13.4 69 10.7
2010-06-10 08:51:28 51°20.644 3°2.037 69.1 13.4 70 10.7
2010-06-10 08:51:33 51°20.651 3°2.065 69.3 13.4 69 10.9
2010-06-10 08:51:37 51°20.656 3°2.087 69 13.4 70 10.8
2010-06-10 08:51:42 51°20.663 3°2.115 69 13.4 69 10.8
2010-06-10 08:51:48 51°20.671 3°2.148 69.1 13.4 69 10.8
2010-06-10 08:51:53 51°20.677 3°2.176 69.1 13.4 69 10.9
2010-06-10 08:51:57 51°20.683 3°2.199 69 13.4 69 10.9
2010-06-10 08:52:03 51°20.69 3°2.232 69.3 13.4 70 10.7
2010-06-10 08:52:08 51°20.697 3°2.26 69.4 13.4 69 10.9
2010-06-10 08:52:13 51°20.703 3°2.288 69.6 13.5 71 10.9
2010-06-10 08:52:18 51°20.71 3°2.316 69.2 13.4 69 10.9
2010-06-10 08:52:23 51°20.716 3°2.344 69.4 13.4 71 10.8
2010-06-10 08:52:28 51°20.723 3°2.372 69.9 13.4 69 11.1
2010-06-10 08:52:33 51°20.729 3°2.4 69.8 13.4 71 11.1
2010-06-10 08:52:38 51°20.735 3°2.428 70 13.5 69 11.1
2010-06-10 08:52:42 51°20.741 3°2.45 69.2 13.5 70 11.1
2010-06-10 08:52:48 51°20.748 3°2.484 69.5 13.5 69 10.9
2010-06-10 08:52:53 51°20.755 3°2.512 69.4 13.4 70 10.9
2010-06-10 08:52:58 51°20.761 3°2.54 69.8 13.4 70 11.1
2010-06-10 08:53:03 51°20.767 3°2.568 69.7 13.5 71 11
2010-06-10 08:53:08 51°20.774 3°2.596 70 13.5 69 10.9
2010-06-10 08:53:13 51°20.78 3°2.624 69.4 13.5 70 10.9
2010-06-10 08:53:17 51°20.786 3°2.647 69.8 13.5 69 10.7
2010-06-10 08:53:23 51°20.793 3°2.68 69.6 13.5 70 10.8
2010-06-10 08:53:28 51°20.8 3°2.708 69.6 13.5 69 10.9
2010-06-10 08:53:33 51°20.807 3°2.736 69 13.5 70 10.8
2010-06-10 08:53:37 51°20.812 3°2.758 69.4 13.5 69 11
2010-06-10 08:53:43 51°20.819 3°2.792 69.3 13.5 71 11
2010-06-10 08:53:48 51°20.826 3°2.82 69.6 13.5 69 11
2010-06-10 08:53:53 51°20.832 3°2.849 69.4 13.4 71 11
2010-06-10 08:53:58 51°20.839 3°2.876 69.8 13.5 69 10.9
2010-06-10 08:54:02 51°20.844 3°2.899 69.6 13.5 71 11
2010-06-10 08:54:08 51°20.852 3°2.932 69.4 13.5 69 10.9
2010-06-10 08:54:13 51°20.859 3°2.961 69.3 13.5 70 10.9
2010-06-10 08:54:17 51°20.864 3°2.983 69 13.5 69 10.8
2010-06-10 08:54:23 51°20.872 3°3.016 68.7 13.5 69 11
2010-06-10 08:54:27 51°20.877 3°3.038 68.8 13.4 69 10.9
2010-06-10 08:54:33 51°20.885 3°3.072 69 13.5 69 10.9
2010-06-10 08:54:38 51°20.892 3°3.1 69 13.5 70 11
2010-06-10 08:54:43 51°20.899 3°3.128 69.2 13.5 68 10.9
2010-06-10 08:54:48 51°20.905 3°3.156 69 13.5 69 10.8
2010-06-10 08:54:53 51°20.912 3°3.184 69.2 13.5 69 11.1
2010-06-10 08:54:58 51°20.918 3°3.212 69.2 13.5 69 11.1
2010-06-10 08:55:02 51°20.923 3°3.234 69.1 13.5 70 11
2010-06-10 08:55:08 51°20.931 3°3.268 69.4 13.6 69 11
2010-06-10 08:55:13 51°20.938 3°3.296 69.2 13.6 70 11.1
2010-06-10 08:55:17 51°20.943 3°3.319 69.4 13.5 70 10.9
2010-06-10 08:55:23 51°20.951 3°3.352 69.7 13.5 70 10.8
2010-06-10 08:55:28 51°20.957 3°3.381 69.5 13.5 70 11.1
2010-06-10 08:55:32 51°20.963 3°3.403 69.3 13.6 69 11
2010-06-10 08:55:37 51°20.969 3°3.431 69.1 13.5 69 10.9
2010-06-10 08:55:43 51°20.977 3°3.465 69 13.5 69 11.3
2010-06-10 08:55:48 51°20.984 3°3.492 68.7 13.5 69 11
2010-06-10 08:55:53 51°20.991 3°3.52 68.9 13.5 69 11.2
2010-06-10 08:55:57 51°20.996 3°3.543 69 13.5 69 11
2010-06-10 08:56:03 51°21.004 3°3.577 69.1 13.5 69 11.3
2010-06-10 08:56:08 51°21.011 3°3.605 69.3 13.5 69 11.1
2010-06-10 08:56:13 51°21.018 3°3.633 69.5 13.6 70 11.2
2010-06-10 08:56:17 51°21.023 3°3.655 69.5 13.5 69 11.4
2010-06-10 08:56:22 51°21.03 3°3.684 69.6 13.5 70 11.2
2010-06-10 08:56:28 51°21.038 3°3.717 69.6 13.5 69 11.3
2010-06-10 08:56:33 51°21.044 3°3.745 69.4 13.6 70 11.4
2010-06-10 08:56:37 51°21.05 3°3.768 69.1 13.6 69 11.4
2010-06-10 08:56:43 51°21.057 3°3.802 69.2 13.6 70 11.6
2010-06-10 08:56:48 51°21.064 3°3.83 69.4 13.6 69 11.4
2010-06-10 08:56:53 51°21.071 3°3.858 69.3 13.5 69 11.3
2010-06-10 08:56:58 51°21.078 3°3.886 69 13.6 69 11.4
2010-06-10 08:57:02 51°21.083 3°3.909 69 13.6 69 11.4
2010-06-10 08:57:08 51°21.091 3°3.942 68.8 13.6 69 11.4
2010-06-10 08:57:13 51°21.098 3°3.97 69 13.6 69 11.5
2010-06-10 08:57:18 51°21.105 3°3.998 69 13.6 69 11.4
2010-06-10 08:57:23 51°21.111 3°4.026 69.7 13.6 69 11.4
2010-06-10 08:57:28 51°21.118 3°4.055 69.1 13.6 69 11.5
2010-06-10 08:57:33 51°21.125 3°4.083 69.1 13.6 70 11.5
2010-06-10 08:57:38 51°21.131 3°4.111 69.4 13.6 70 11.5
2010-06-10 08:57:43 51°21.138 3°4.139 69.3 13.6 69 11.6
2010-06-10 08:57:48 51°21.145 3°4.167 68.9 13.5 69 11.6
2010-06-10 08:57:53 51°21.152 3°4.196 68.8 13.6 69 11.6
2010-06-10 08:57:58 51°21.159 3°4.223 68.9 13.6 68 11.4
2010-06-10 08:58:03 51°21.165 3°4.251 68.6 13.6 69 11.4
2010-06-10 08:58:08 51°21.172 3°4.28 69 13.6 69 11.6
2010-06-10 08:58:13 51°21.179 3°4.308 68.7 13.6 69 11.5
2010-06-10 08:58:17 51°21.184 3°4.331 69.4 13.6 70 11.4
2010-06-10 08:58:23 51°21.192 3°4.365 69.5 13.6 69 11.6
2010-06-10 08:58:28 51°21.199 3°4.392 69.4 13.6 69 11.6
2010-06-10 08:58:33 51°21.205 3°4.421 69.2 13.6 69 11.6
2010-06-10 08:58:37 51°21.21 3°4.443 69.4 13.6 70 11.5
2010-06-10 08:58:43 51°21.219 3°4.477 69.3 13.7 69 11.8
2010-06-10 08:58:48 51°21.226 3°4.505 69 13.6 69 11.7
2010-06-10 08:58:53 51°21.232 3°4.534 68.9 13.6 70 11.7
2010-06-10 08:58:58 51°21.239 3°4.562 69.7 13.7 69 11.8
2010-06-10 08:59:02 51°21.244 3°4.585 69.3 13.6 70 11.8
2010-06-10 08:59:08 51°21.252 3°4.618 69.3 13.6 69 11.7
2010-06-10 08:59:13 51°21.259 3°4.647 69 13.6 70 11.7
2010-06-10 08:59:18 51°21.266 3°4.675 69.1 13.6 69 11.7
2010-06-10 08:59:22 51°21.271 3°4.698 69.2 13.7 69 11.9
2010-06-10 08:59:28 51°21.279 3°4.731 69.1 13.7 69 11.5
2010-06-10 08:59:33 51°21.286 3°4.76 69 13.7 70 11.7
2010-06-10 08:59:38 51°21.293 3°4.788 69.4 13.7 69 12.1
2010-06-10 08:59:43 51°21.299 3°4.817 69.1 13.6 71 11.6
2010-06-10 08:59:48 51°21.306 3°4.845 69.8 13.6 68 11.9
2010-06-10 08:59:53 51°21.312 3°4.873 69.1 13.7 70 11.8
2010-06-10 08:59:58 51°21.32 3°4.901 68.9 13.6 69 11.8
2010-06-10 09:00:03 51°21.326 3°4.929 69.2 13.6 69 11.5
2010-06-10 09:00:08 51°21.333 3°4.958 69.2 13.7 69 11.7
2010-06-10 09:00:13 51°21.339 3°4.986 69.3 13.7 70 11.7
2010-06-10 09:00:17 51°21.345 3°5.009 69.7 13.7 69 11.5
2010-06-10 09:00:23 51°21.353 3°5.043 69.2 13.7 70 11.7
2010-06-10 09:00:28 51°21.359 3°5.072 69.8 13.7 69 11.5
2010-06-10 09:00:33 51°21.366 3°5.1 69.4 13.7 70 11.7
2010-06-10 09:00:37 51°21.371 3°5.123 69.6 13.7 69 11.6
2010-06-10 09:00:42 51°21.378 3°5.151 69.6 13.7 69 11.7
2010-06-10 09:00:48 51°21.386 3°5.185 69.3 13.7 69 11.6
2010-06-10 09:00:53 51°21.393 3°5.214 69.3 13.7 69 11.7
2010-06-10 09:00:57 51°21.398 3°5.236 69.2 13.7 69 11.6
2010-06-10 09:01:03 51°21.406 3°5.27 69.1 13.7 69 11.6
2010-06-10 09:01:07 51°21.412 3°5.293 69.2 13.8 69 11.8
2010-06-10 09:01:13 51°21.42 3°5.327 69.1 13.8 68 11.7
2010-06-10 09:01:18 51°21.427 3°5.356 68.8 13.7 70 11.6
2010-06-10 09:01:22 51°21.432 3°5.379 69 13.8 69 11.7
2010-06-10 09:01:28 51°21.44 3°5.413 68.8 13.8 69 11.8
2010-06-10 09:01:33 51°21.447 3°5.441 69 13.8 69 11.6
2010-06-10 09:01:38 51°21.454 3°5.47 69.1 13.7 69 11.6
2010-06-10 09:01:42 51°21.459 3°5.493 69.3 13.8 69 11.8
2010-06-10 09:01:48 51°21.467 3°5.527 69.3 13.8 70 11.8
2010-06-10 09:01:53 51°21.474 3°5.555 69.3 13.8 69 11.9
2010-06-10 09:01:58 51°21.48 3°5.584 69.3 13.8 70 11.9
2010-06-10 09:02:03 51°21.488 3°5.613 69.5 13.8 69 11.9
2010-06-10 09:02:08 51°21.494 3°5.642 69.6 13.9 70 11.9
2010-06-10 09:02:13 51°21.501 3°5.67 69.3 13.9 69 12
2010-06-10 09:02:17 51°21.506 3°5.693 69.1 13.8 70 12
2010-06-10 09:02:23 51°21.515 3°5.727 69.3 13.8 69 12.1
2010-06-10 09:02:28 51°21.521 3°5.756 69.2 13.9 70 12
2010-06-10 09:02:33 51°21.528 3°5.785 69.5 13.9 69 12.1
2010-06-10 09:02:37 51°21.533 3°5.808 69.4 13.9 70 12.2
2010-06-10 09:02:43 51°21.541 3°5.842 69.8 13.9 70 12
2010-06-10 09:02:48 51°21.548 3°5.871 69.4 13.9 70 12.2
2010-06-10 09:02:53 51°21.555 3°5.9 69.7 13.9 69 12.2
2010-06-10 09:02:57 51°21.56 3°5.923 69.3 13.9 69 12.1
2010-06-10 09:03:03 51°21.569 3°5.957 69.1 13.9 69 12.1
2010-06-10 09:03:08 51°21.575 3°5.986 69.3 13.9 69 12
2010-06-10 09:03:13 51°21.582 3°6.015 69.3 13.9 70 12.1
2010-06-10 09:03:18 51°21.589 3°6.044 69.7 13.9 69 12
2010-06-10 09:03:22 51°21.594 3°6.067 69.4 13.9 70 11.8
2010-06-10 09:03:28 51°21.603 3°6.102 69.5 13.9 69 12.1
2010-06-10 09:03:33 51°21.609 3°6.131 69.2 13.9 69 12.1
2010-06-10 09:03:38 51°21.616 3°6.16 69.5 13.9 70 12.1
2010-06-10 09:03:42 51°21.621 3°6.183 69.5 13.9 70 12
2010-06-10 09:03:48 51°21.63 3°6.217 69.6 13.9 69 12
2010-06-10 09:03:52 51°21.635 3°6.24 69.1 13.9 70 12.1
2010-06-10 09:03:58 51°21.643 3°6.275 69.5 13.9 69 12.1
2010-06-10 09:04:02 51°21.649 3°6.298 69.1 13.9 70 12.1
2010-06-10 09:04:08 51°21.657 3°6.332 69.1 13.9 68 12
2010-06-10 09:04:13 51°21.663 3°6.361 68.8 13.8 70 12.3
2010-06-10 09:04:17 51°21.669 3°6.384 69.5 13.9 69 12.2
2010-06-10 09:04:23 51°21.677 3°6.419 69.8 13.9 70 12.1
2010-06-10 09:04:28 51°21.684 3°6.448 69.4 13.9 69 12.3
2010-06-10 09:04:32 51°21.69 3°6.471 69 13.9 70 12.3
2010-06-10 09:04:37 51°21.697 3°6.5 69.4 13.9 68 12.1
2010-06-10 09:04:43 51°21.705 3°6.534 68.3 13.9 70 12.4
2010-06-10 09:04:48 51°21.712 3°6.563 69.1 13.9 68 12.4
2010-06-10 09:04:53 51°21.718 3°6.592 69.5 13.9 72 12.2
2010-06-10 09:04:57 51°21.723 3°6.615 70.7 14 70 12.4
2010-06-10 09:05:03 51°21.731 3°6.65 70.6 13.9 72 12.4
2010-06-10 09:05:08 51°21.737 3°6.679 71.4 13.9 71 12.5
2010-06-10 09:05:13 51°21.743 3°6.709 71.8 13.9 73 12.3
2010-06-10 09:05:17 51°21.747 3°6.733 72.6 13.9 72 12.5
2010-06-10 09:05:22 51°21.753 3°6.762 72.3 13.9 72 12.4
2010-06-10 09:05:28 51°21.761 3°6.797 72.2 13.9 72 12.7
2010-06-10 09:05:33 51°21.767 3°6.827 72.2 14 72 12.4
2010-06-10 09:05:37 51°21.771 3°6.85 72.4 14 73 12.7
2010-06-10 09:05:43 51°21.778 3°6.885 72.4 13.9 73 12.7
2010-06-10 09:05:48 51°21.784 3°6.915 72.6 13.9 72 12.9
2010-06-10 09:05:53 51°21.79 3°6.944 72.3 13.9 72 12.6
2010-06-10 09:05:58 51°21.796 3°6.974 72.5 14 72 12.8
2010-06-10 09:06:02 51°21.8 3°6.997 72.4 13.9 73 12.7
2010-06-10 09:06:08 51°21.807 3°7.033 72.8 13.9 73 12.8
2010-06-10 09:06:13 51°21.813 3°7.062 72.8 13.9 72 12.6
2010-06-10 09:06:17 51°21.817 3°7.086 72.9 14 73 12.8
2010-06-10 09:06:23 51°21.824 3°7.121 72.8 13.9 73 12.9
2010-06-10 09:06:28 51°21.829 3°7.151 73.8 13.9 75 12.8
2010-06-10 09:06:32 51°21.833 3°7.175 74.8 14 74 12.8
2010-06-10 09:06:38 51°21.839 3°7.211 75 14 76 12.9
2010-06-10 09:06:43 51°21.844 3°7.241 75.9 14 76 12.9
2010-06-10 09:06:48 51°21.848 3°7.271 76.3 14 77 13
2010-06-10 09:06:53 51°21.853 3°7.301 76.4 13.9 77 12.9
2010-06-10 09:06:57 51°21.857 3°7.325 76.7 14 76 12.9
2010-06-10 09:07:03 51°21.862 3°7.362 76.6 14 76 13
2010-06-10 09:07:08 51°21.867 3°7.392 76.4 14 77 13.1
2010-06-10 09:07:13 51°21.872 3°7.422 76.7 14 76 13.2
2010-06-10 09:07:17 51°21.876 3°7.446 76.6 14 75 13
2010-06-10 09:07:23 51°21.881 3°7.482 76.4 14 77 13
2010-06-10 09:07:28 51°21.886 3°7.512 76.6 14 75 13.1
2010-06-10 09:07:33 51°21.89 3°7.542 76.3 14 77 12.9
2010-06-10 09:07:38 51°21.895 3°7.572 76.4 14 76 12.9
2010-06-10 09:07:42 51°21.899 3°7.596 76.4 14 77 13
2010-06-10 09:07:48 51°21.904 3°7.633 77 14 76 12.9
2010-06-10 09:07:53 51°21.909 3°7.663 76.5 14.1 76 13.1
2010-06-10 09:07:57 51°21.912 3°7.687 76.5 14 77 13
2010-06-10 09:08:03 51°21.918 3°7.724 76.9 14.1 76 12.8
2010-06-10 09:08:07 51°21.921 3°7.748 77 14.2 77 13
2010-06-10 09:08:13 51°21.927 3°7.784 76.8 14.1 76 13.1
2010-06-10 09:08:18 51°21.932 3°7.815 76.8 14.1 76 13
2010-06-10 09:08:23 51°21.937 3°7.845 76.9 14.1 76 13
2010-06-10 09:08:28 51°21.942 3°7.875 76.4 14.2 76 13
2010-06-10 09:08:32 51°21.945 3°7.9 76.3 14.2 77 13
2010-06-10 09:08:38 51°21.951 3°7.936 76.5 14.1 76 13
2010-06-10 09:08:42 51°21.955 3°7.96 76.6 14.1 77 13
2010-06-10 09:08:48 51°21.961 3°7.996 76.8 14.1 75 12.9
2010-06-10 09:08:53 51°21.965 3°8.027 76.4 14.2 77 13.1
2010-06-10 09:08:58 51°21.969 3°8.058 76.7 14.1 77 13
2010-06-10 09:09:03 51°21.974 3°8.088 77 14.1 77 13.1
2010-06-10 09:09:08 51°21.978 3°8.119 78.2 14.1 79 13.1
2010-06-10 09:09:13 51°21.981 3°8.15 79.1 14.2 79 13.2
2010-06-10 09:09:17 51°21.984 3°8.175 79.9 14.2 81 13.3
2010-06-10 09:09:23 51°21.988 3°8.212 80.7 14.1 81 13.3
2010-06-10 09:09:28 51°21.991 3°8.243 81.3 14.1 81 13.1
2010-06-10 09:09:33 51°21.994 3°8.274 81.5 14.2 81 13.4
2010-06-10 09:09:38 51°21.997 3°8.305 81.3 14.2 81 13.1
2010-06-10 09:09:42 51°21.999 3°8.33 81.9 14.2 81 13.3
2010-06-10 09:09:48 51°22.003 3°8.367 81.7 14.2 81 13.3
2010-06-10 09:09:53 51°22.006 3°8.398 81.9 14.2 82 13.3
2010-06-10 09:09:57 51°22.009 3°8.423 81.7 14.3 80 13.2
2010-06-10 09:10:02 51°22.012 3°8.454 81.6 14.2 81 13.2
2010-06-10 09:10:08 51°22.016 3°8.491 81.6 14.2 81 13.1
2010-06-10 09:10:13 51°22.019 3°8.522 81.9 14.2 81 13.2
2010-06-10 09:10:17 51°22.021 3°8.547 81.9 14.2 81 13.2
2010-06-10 09:10:23 51°22.025 3°8.584 81.8 14.2 80 13.4
2010-06-10 09:10:27 51°22.028 3°8.609 81.3 14.2 82 13.4
2010-06-10 09:10:33 51°22.031 3°8.647 82.1 14.2 80 13.5
2010-06-10 09:10:38 51°22.034 3°8.678 81.6 14.2 81 13.3
2010-06-10 09:10:43 51°22.037 3°8.709 81.8 14.3 80 13.4
2010-06-10 09:10:48 51°22.04 3°8.74 80.9 14.2 81 13.5
2010-06-10 09:10:52 51°22.043 3°8.765 81.7 14.2 80 13.3
2010-06-10 09:10:58 51°22.047 3°8.802 81.4 14.2 81 13.6
2010-06-10 09:11:02 51°22.049 3°8.827 81.4 14.3 81 13.6
2010-06-10 09:11:08 51°22.053 3°8.865 81.4 14.3 80 13.6
2010-06-10 09:11:13 51°22.056 3°8.896 81.4 14.2 81 13.7
2010-06-10 09:11:18 51°22.06 3°8.927 81.3 14.2 80 13.8
2010-06-10 09:11:23 51°22.063 3°8.958 81.9 14.2 81 13.6
2010-06-10 09:11:28 51°22.066 3°8.989 81.6 14.3 80 13.7
2010-06-10 09:11:33 51°22.069 3°9.021 82 14.3 80 13.7
2010-06-10 09:11:37 51°22.072 3°9.046 81.2 14.3 81 13.9
2010-06-10 09:11:43 51°22.076 3°9.084 81.3 14.4 80 14
2010-06-10 09:11:48 51°22.079 3°9.115 81.4 14.3 81 13.9
2010-06-10 09:11:53 51°22.082 3°9.146 82.1 14.3 81 14.1
2010-06-10 09:11:58 51°22.086 3°9.177 81.4 14.3 80 13.9
2010-06-10 09:12:02 51°22.088 3°9.203 81.8 14.3 81 14
2010-06-10 09:12:08 51°22.092 3°9.24 81.4 14.3 81 14
2010-06-10 09:12:13 51°22.095 3°9.272 81.9 14.3 80 14.1
2010-06-10 09:12:17 51°22.098 3°9.297 81.4 14.3 80 14.1
2010-06-10 09:12:22 51°22.101 3°9.328 81.7 14.4 82 14.2
2010-06-10 09:12:28 51°22.105 3°9.365 81.7 14.3 80 14.4
2010-06-10 09:12:33 51°22.108 3°9.397 81.5 14.3 81 14.3
2010-06-10 09:12:37 51°22.11 3°9.422 81.8 14.3 80 14.3
2010-06-10 09:12:43 51°22.114 3°9.459 81.4 14.3 82 14.4
2010-06-10 09:12:47 51°22.117 3°9.484 81.4 14.3 81 14.4
2010-06-10 09:12:53 51°22.12 3°9.522 82 14.3 82 14.6
2010-06-10 09:12:58 51°22.124 3°9.553 81.5 14.3 81 14.6
2010-06-10 09:13:03 51°22.127 3°9.585 81.5 14.3 80 14.6
2010-06-10 09:13:08 51°22.13 3°9.616 81.5 14.3 80 14.5
2010-06-10 09:13:12 51°22.133 3°9.641 81.4 14.4 81 14.8
2010-06-10 09:13:18 51°22.137 3°9.679 81.3 14.4 79 14.7
2010-06-10 09:13:23 51°22.14 3°9.71 81.5 14.4 82 14.9
2010-06-10 09:13:28 51°22.144 3°9.742 81.6 14.4 79 14.6
2010-06-10 09:13:33 51°22.147 3°9.773 81.4 14.4 81 14.8
2010-06-10 09:13:37 51°22.15 3°9.798 81.5 14.4 79 14.7
2010-06-10 09:13:43 51°22.154 3°9.836 81.3 14.4 81 14.9
2010-06-10 09:13:48 51°22.158 3°9.868 81.7 14.4 80 15
2010-06-10 09:13:53 51°22.161 3°9.899 81.5 14.5 80 15.3
2010-06-10 09:13:57 51°22.164 3°9.925 81.3 14.4 81 15.2
2010-06-10 09:14:03 51°22.168 3°9.962 81.4 14.4 80 15.3
2010-06-10 09:14:08 51°22.171 3°9.994 81.2 14.4 80 15.5
2010-06-10 09:14:13 51°22.175 3°10.025 80.9 14.5 80 15.7
2010-06-10 09:14:17 51°22.178 3°10.051 81.4 14.4 80 15.5
2010-06-10 09:14:22 51°22.181 3°10.082 81.5 14.5 80 15.7
2010-06-10 09:14:28 51°22.186 3°10.12 80.8 14.4 78 15.7
2010-06-10 09:14:33 51°22.19 3°10.151 79.9 14.5 79 15.6
2010-06-10 09:14:37 51°22.194 3°10.176 79.2 14.5 77 15.7
2010-06-10 09:14:43 51°22.198 3°10.214 78.6 14.5 79 15.9
2010-06-10 09:14:47 51°22.202 3°10.239 78.8 14.4 77 16
2010-06-10 09:14:53 51°22.208 3°10.276 78.1 14.4 77 16
2010-06-10 09:14:58 51°22.213 3°10.307 76.6 14.4 74 15.9
2010-06-10 09:15:02 51°22.217 3°10.332 75.9 14.5 76 16
2010-06-10 09:15:08 51°22.224 3°10.368 75.1 14.4 73 16.2
2010-06-10 09:15:12 51°22.228 3°10.392 74.7 14.4 74 16.2
2010-06-10 09:15:18 51°22.236 3°10.429 74.3 14.4 73 16.5
2010-06-10 09:15:22 51°22.24 3°10.454 74.1 14.4 73 16.7
2010-06-10 09:15:28 51°22.248 3°10.49 73.4 14.4 71 17
2010-06-10 09:15:33 51°22.254 3°10.52 72.3 14.4 71 17.1
2010-06-10 09:15:38 51°22.261 3°10.55 71.4 14.3 70 19.9
2010-06-10 09:15:43 51°22.269 3°10.58 70.4 14.3 69 20.5
2010-06-10 09:15:48 51°22.275 3°10.609 70.1 14.3 69 19.5
2010-06-10 09:15:53 51°22.283 3°10.638 69.6 14.2 68 19.9
2010-06-10 09:15:57 51°22.288 3°10.661 68.8 13.9 69 19.9